Time;durP1;ratioP1;P1;durP2;ratioP2;P2;SDS_P1;SDS_P2;PMS_P1;PMS_P2;Temp;Humidity;BMP_temperature;BMP_pressure;BME280_temperature;BME280_humidity;BME280_pressure;Samples;Min_cycle;Max_cycle;Signal;HPM_P1;HPM_P2
2021/12/12 00:01:00;;;;;;;2.88;1.92;;;3.80;99.90;;;;;;4943419;28;20105;-71
2021/12/12 00:03:35;;;;;;;6.43;2.40;;;3.80;99.90;;;;;;4943372;28;20122;-71
2021/12/12 00:06:13;;;;;;;3.35;1.98;;;3.80;99.90;;;;;;4963728;28;20151;-71
2021/12/12 00:08:42;;;;;;;3.97;2.33;;;3.80;99.90;;;;;;4952658;28;20030;-71
2021/12/12 00:11:13;;;;;;;6.30;2.58;;;3.80;99.90;;;;;;4946692;28;20031;-73
2021/12/12 00:13:47;;;;;;;5.00;2.88;;;3.80;99.90;;;;;;4948749;28;20070;-71
2021/12/12 00:16:13;;;;;;;4.57;2.80;;;3.80;99.90;;;;;;4945270;28;20019;-73
2021/12/12 00:18:39;;;;;;;6.38;2.97;;;3.80;99.90;;;;;;4947553;28;20055;-73
2021/12/12 00:21:07;;;;;;;6.55;2.88;;;3.80;99.90;;;;;;4951295;28;20027;-73
2021/12/12 00:23:33;;;;;;;4.30;2.58;;;3.80;99.90;;;;;;4948945;28;20353;-73
2021/12/12 00:26:00;;;;;;;5.25;2.58;;;3.80;99.90;;;;;;4950957;28;20050;-72
2021/12/12 00:28:28;;;;;;;6.53;2.97;;;3.70;99.90;;;;;;4942950;28;20372;-73
2021/12/12 00:30:57;;;;;;;6.13;2.65;;;3.80;99.90;;;;;;4943908;28;20122;-73
2021/12/12 00:33:24;;;;;;;4.47;2.58;;;3.70;99.90;;;;;;4935490;28;20059;-73
2021/12/12 00:35:51;;;;;;;5.25;2.95;;;3.70;99.90;;;;;;4943066;28;20576;-73
2021/12/12 00:38:26;;;;;;;7.78;3.13;;;3.70;99.90;;;;;;4968238;28;20416;-74
2021/12/12 00:40:55;;;;;;;4.20;2.88;;;3.70;99.90;;;;;;4947812;28;20052;-73
2021/12/12 00:43:28;;;;;;;4.18;2.67;;;3.80;99.90;;;;;;4949312;28;20042;-73
2021/12/12 00:45:57;;;;;;;7.32;2.55;;;3.70;99.90;;;;;;4947893;28;20400;-73
2021/12/12 00:48:26;;;;;;;4.82;2.60;;;3.70;99.90;;;;;;4949953;28;20122;-74
2021/12/12 00:50:52;;;;;;;8.13;3.35;;;3.70;99.90;;;;;;4949430;28;20024;-73
2021/12/12 00:53:20;;;;;;;4.75;2.88;;;3.70;99.90;;;;;;4959485;28;20082;-73
2021/12/12 00:55:49;;;;;;;5.00;2.88;;;3.70;99.90;;;;;;4947920;28;20179;-73
2021/12/12 00:58:17;;;;;;;4.78;2.60;;;3.80;99.90;;;;;;4950156;28;20071;-73
2021/12/12 01:00:50;;;;;;;6.40;3.28;;;3.80;99.90;;;;;;4962618;28;20060;-72
2021/12/12 01:03:45;;;;;;;5.63;2.92;;;3.80;99.90;;;;;;4937782;28;20369;-73
2021/12/12 01:06:12;;;;;;;;;;;3.80;99.90;;;;;;4937594;28;20061;-73
2021/12/12 01:08:38;;;;;;;5.57;2.67;;;3.80;99.90;;;;;;4942489;28;19918;-73
2021/12/12 01:11:15;;;;;;;8.25;3.42;;;3.80;99.90;;;;;;4949846;28;20053;-73
2021/12/12 01:13:44;;;;;;;4.22;2.67;;;3.80;99.90;;;;;;4951094;28;20385;-71
2021/12/12 01:16:26;;;;;;;6.82;3.00;;;3.80;99.90;;;;;;4946241;28;20385;-71
2021/12/12 01:19:00;;;;;;;7.68;3.85;;;3.80;99.90;;;;;;4977260;28;20481;-71
2021/12/12 01:21:34;;;;;;;6.25;3.55;;;3.80;99.90;;;;;;4947826;28;20031;-72
2021/12/12 01:24:14;;;;;;;6.10;2.97;;;3.80;99.90;;;;;;4945406;28;20126;-71
2021/12/12 01:26:40;;;;;;;5.25;3.08;;;3.80;99.90;;;;;;4949217;28;20027;-71
2021/12/12 01:29:10;;;;;;;7.38;3.10;;;3.80;99.90;;;;;;4944983;28;20027;-72
2021/12/12 01:31:46;;;;;;;7.55;3.08;;;3.80;99.90;;;;;;4946718;28;20144;-72
2021/12/12 01:34:14;;;;;;;6.57;3.20;;;3.80;99.90;;;;;;4942926;28;20457;-72
2021/12/12 01:37:09;;;;;;;6.05;3.70;;;3.80;99.90;;;;;;4946022;28;20027;-72
2021/12/12 01:39:41;;;;;;;6.93;3.10;;;3.80;99.90;;;;;;4944215;28;20033;-72
2021/12/12 01:42:24;;;;;;;7.88;3.22;;;3.90;99.90;;;;;;4947200;28;20039;-72
2021/12/12 01:44:57;;;;;;;5.18;3.22;;;3.80;99.90;;;;;;4947409;28;20027;-72
2021/12/12 01:47:31;;;;;;;7.15;3.63;;;3.80;99.90;;;;;;4941788;28;20038;-72
2021/12/12 01:50:02;;;;;;;7.80;3.40;;;3.80;99.90;;;;;;4949472;28;20034;-71
2021/12/12 01:52:29;;;;;;;8.15;3.53;;;3.80;99.90;;;;;;4948439;28;20039;-71
2021/12/12 01:55:06;;;;;;;5.30;2.80;;;3.80;99.90;;;;;;4946199;28;20019;-71
2021/12/12 01:57:34;;;;;;;6.20;3.20;;;3.90;99.90;;;;;;4949328;28;20609;-71
2021/12/12 02:00:11;;;;;;;4.45;3.08;;;3.80;99.90;;;;;;4951704;28;20093;-71
2021/12/12 02:02:36;;;;;;;8.13;3.28;;;3.80;99.90;;;;;;4976682;28;20125;-72
2021/12/12 02:05:12;;;;;;;6.68;3.53;;;3.80;99.90;;;;;;4947627;28;20086;-72
2021/12/12 02:07:40;;;;;;;4.75;2.80;;;3.80;99.90;;;;;;4948227;28;20027;-72
2021/12/12 02:10:13;;;;;;;5.82;3.40;;;3.80;99.90;;;;;;4960851;28;20539;-72
2021/12/12 02:12:39;;;;;;;4.68;2.92;;;3.80;99.90;;;;;;4947316;28;20085;-71
2021/12/12 02:15:09;;;;;;;5.70;3.30;;;3.80;99.90;;;;;;4938783;28;20034;-70
2021/12/12 02:17:41;;;;;;;6.80;2.90;;;3.80;99.90;;;;;;4947610;28;20023;-71
2021/12/12 02:20:46;;;;;;;5.57;3.10;;;3.70;99.90;;;;;;4946283;28;20053;-71
2021/12/12 02:36:54;;;;;;;3.53;1.80;;;3.80;99.90;;;;;;4948124;28;20105;-71
2021/12/12 02:39:21;;;;;;;4.28;1.60;;;3.80;99.90;;;;;;4946347;29;20031;-70
2021/12/12 02:41:59;;;;;;;2.53;1.60;;;3.70;99.90;;;;;;4946395;28;20027;-72
2021/12/12 02:44:30;;;;;;;4.07;1.63;;;3.70;99.90;;;;;;4944897;28;20384;-71
2021/12/12 02:46:59;;;;;;;2.63;1.67;;;3.70;99.90;;;;;;4946259;28;20241;-72
2021/12/12 02:49:52;;;;;;;5.38;1.70;;;3.70;99.90;;;;;;4947622;28;20027;-71
2021/12/12 02:52:23;;;;;;;5.57;1.98;;;3.80;99.90;;;;;;4943130;28;20077;-72
2021/12/12 02:54:49;;;;;;;4.55;1.70;;;3.70;99.90;;;;;;4976632;28;20019;-71
2021/12/12 02:57:18;;;;;;;4.05;1.85;;;3.70;99.90;;;;;;4946774;28;20385;-71
2021/12/12 02:59:48;;;;;;;3.17;1.80;;;3.70;99.90;;;;;;4945070;28;20082;-72
2021/12/12 03:02:23;;;;;;;2.63;1.60;;;3.70;99.90;;;;;;4950059;28;20035;-72
2021/12/12 03:04:49;;;;;;;3.17;1.60;;;3.80;99.90;;;;;;4943273;28;20611;-72
2021/12/12 03:07:16;;;;;;;2.58;1.70;;;3.70;99.90;;;;;;4945256;28;20039;-72
2021/12/12 03:09:44;;;;;;;3.08;1.55;;;3.70;99.90;;;;;;4948224;28;20106;-72
2021/12/12 03:12:15;;;;;;;2.67;1.60;;;3.70;99.90;;;;;;4947778;28;20024;-71
2021/12/12 03:14:42;;;;;;;4.80;2.47;;;3.70;99.90;;;;;;4945763;28;20027;-72
2021/12/12 03:17:12;;;;;;;5.88;2.20;;;3.70;99.90;;;;;;4945506;28;20499;-71
2021/12/12 03:19:38;;;;;;;7.32;2.35;;;3.60;99.90;;;;;;4960379;28;20034;-72
2021/12/12 03:22:07;;;;;;;5.00;2.03;;;3.60;99.90;;;;;;4947974;28;20670;-72
2021/12/12 03:24:33;;;;;;;4.18;2.10;;;3.60;99.90;;;;;;4960084;28;20027;-73
2021/12/12 03:27:02;;;;;;;3.58;1.80;;;3.60;99.90;;;;;;4948123;28;20494;-73
2021/12/12 03:29:28;;;;;;;4.70;2.38;;;3.60;99.90;;;;;;4943914;28;20050;-73
2021/12/12 03:32:05;;;;;;;4.40;2.20;;;3.60;99.90;;;;;;4943780;28;20035;-72
2021/12/12 03:34:35;;;;;;;4.47;2.08;;;3.60;99.90;;;;;;4949167;28;20028;-71
2021/12/12 03:37:03;;;;;;;5.07;2.70;;;3.60;99.90;;;;;;4946040;28;20030;-70
2021/12/12 03:39:33;;;;;;;4.70;2.13;;;3.60;99.90;;;;;;4950521;28;20484;-70
2021/12/12 03:42:04;;;;;;;4.20;2.42;;;3.60;99.90;;;;;;4951090;28;20034;-71
2021/12/12 03:44:38;;;;;;;4.47;2.47;;;3.50;99.90;;;;;;4980231;28;20035;-73
2021/12/12 03:47:31;;;;;;;5.65;2.50;;;3.50;99.90;;;;;;4952739;28;20066;-72
2021/12/12 03:49:59;;;;;;;3.50;2.00;;;3.50;99.90;;;;;;4950864;28;20153;-72
2021/12/12 03:52:26;;;;;;;3.42;2.15;;;3.50;99.90;;;;;;4952334;28;20023;-69
2021/12/12 03:54:54;;;;;;;4.68;2.80;;;3.50;99.90;;;;;;4981509;28;20059;-71
2021/12/12 03:57:21;;;;;;;5.45;2.72;;;3.40;99.90;;;;;;4951423;28;20031;-71
2021/12/12 03:59:47;;;;;;;6.35;2.97;;;3.40;99.90;;;;;;4938867;28;20595;-72
2021/12/12 04:02:13;;;;;;;6.63;2.67;;;3.40;99.90;;;;;;4950666;28;20388;-72
2021/12/12 04:04:42;;;;;;;5.47;2.65;;;3.40;99.90;;;;;;4950195;28;20031;-71
2021/12/12 04:07:20;;;;;;;4.53;2.95;;;3.40;99.90;;;;;;4951225;28;20448;-73
2021/12/12 04:09:46;;;;;;;4.18;3.03;;;3.40;99.90;;;;;;4949350;28;20074;-72
2021/12/12 04:12:14;;;;;;;6.82;2.70;;;3.40;99.90;;;;;;4948621;28;20019;-72
2021/12/12 04:14:41;;;;;;;4.75;2.72;;;3.30;99.90;;;;;;4949408;28;20035;-72
2021/12/12 04:17:13;;;;;;;6.63;3.15;;;3.30;99.90;;;;;;4951986;28;20039;-72
2021/12/12 04:19:40;;;;;;;5.70;3.15;;;3.30;99.90;;;;;;4964586;28;20082;-72
2021/12/12 04:22:06;;;;;;;4.70;2.85;;;3.30;99.90;;;;;;4950831;28;20074;-72
2021/12/12 04:24:36;;;;;;;6.95;3.22;;;3.30;99.90;;;;;;4950885;28;20035;-72
2021/12/12 04:27:03;;;;;;;6.32;2.78;;;3.30;99.90;;;;;;4949827;28;20031;-72
2021/12/12 04:29:35;;;;;;;4.75;2.67;;;3.30;99.90;;;;;;4943152;28;20042;-71
2021/12/12 04:32:13;;;;;;;4.30;2.47;;;3.30;99.90;;;;;;4964797;28;20047;-72
2021/12/12 04:34:42;;;;;;;8.15;3.03;;;3.30;99.90;;;;;;4945523;28;20029;-71
2021/12/12 04:37:09;;;;;;;6.55;3.03;;;3.30;99.90;;;;;;4953476;28;20110;-71
2021/12/12 04:39:39;;;;;;;5.57;2.35;;;3.30;99.90;;;;;;4948114;28;20412;-72
2021/12/12 04:42:19;;;;;;;2.95;2.08;;;3.20;99.90;;;;;;4945186;28;20160;-72
2021/12/12 04:44:54;;;;;;;6.32;2.50;;;3.20;99.90;;;;;;4952546;28;20488;-71
2021/12/12 04:50:33;;;;;;;7.85;2.30;;;3.10;99.90;;;;;;4949505;28;20078;-72
2021/12/12 04:53:24;;;;;;;4.70;2.20;;;3.10;99.90;;;;;;4949304;28;20028;-71
2021/12/12 04:56:08;;;;;;;4.40;1.92;;;3.10;99.90;;;;;;4978116;28;20066;-71
2021/12/12 04:58:40;;;;;;;2.80;1.80;;;3.00;99.90;;;;;;4950415;28;20027;-71
2021/12/12 05:01:30;;;;;;;3.42;1.90;;;2.90;99.90;;;;;;4947261;28;20057;-71
2021/12/12 05:04:06;;;;;;;3.45;1.83;;;2.80;99.90;;;;;;4949435;28;20047;-71
2021/12/12 05:06:43;;;;;;;3.85;1.67;;;2.70;99.90;;;;;;4979261;28;20036;-72
2021/12/12 05:09:23;;;;;;;3.95;2.00;;;2.70;99.90;;;;;;4949992;28;20394;-72
2021/12/12 05:12:09;;;;;;;4.55;2.38;;;2.60;99.90;;;;;;4948431;28;20089;-71
2021/12/12 05:14:38;;;;;;;3.97;1.63;;;2.60;99.90;;;;;;4947544;28;20031;-71
2021/12/12 05:17:13;;;;;;;4.70;1.60;;;2.50;99.90;;;;;;4948200;28;20514;-71
2021/12/12 05:19:45;;;;;;;3.72;2.05;;;2.40;99.90;;;;;;4951478;28;20053;-71
2021/12/12 05:22:15;;;;;;;5.35;1.80;;;2.40;99.90;;;;;;4949884;28;20424;-72
2021/12/12 05:24:43;;;;;;;2.90;1.52;;;2.30;99.90;;;;;;4961144;28;20396;-71
2021/12/12 05:27:15;;;;;;;4.97;1.80;;;2.30;99.90;;;;;;4949630;28;20114;-71
2021/12/12 05:29:54;;;;;;;2.88;1.60;;;2.30;99.90;;;;;;4945160;28;20034;-70
2021/12/12 05:32:22;;;;;;;3.92;1.70;;;2.20;99.90;;;;;;4948438;28;20038;-72
2021/12/12 05:34:49;;;;;;;3.75;1.90;;;2.20;99.90;;;;;;4946579;28;20042;-72
2021/12/12 05:37:17;;;;;;;4.80;1.75;;;2.10;99.90;;;;;;4947317;28;20852;-73
2021/12/12 05:39:44;;;;;;;2.35;1.77;;;2.10;99.90;;;;;;4951542;28;20027;-73
2021/12/12 05:42:12;;;;;;;2.80;2.00;;;2.00;99.90;;;;;;4963795;28;20027;-73
2021/12/12 05:44:38;;;;;;;3.53;1.73;;;2.00;99.90;;;;;;4963004;28;20031;-72
2021/12/12 05:47:06;;;;;;;3.22;2.30;;;2.00;99.90;;;;;;4945848;28;20376;-72
2021/12/12 05:49:34;;;;;;;2.90;1.85;;;1.90;99.90;;;;;;4953080;28;20035;-72
2021/12/12 05:52:01;;;;;;;4.07;1.95;;;1.90;99.90;;;;;;4977231;28;20035;-72
2021/12/12 05:54:29;;;;;;;4.57;1.58;;;1.90;99.90;;;;;;4947961;28;20078;-72
2021/12/12 05:56:58;;;;;;;2.67;1.50;;;1.80;99.90;;;;;;4947284;28;20115;-72
2021/12/12 05:59:24;;;;;;;2.38;1.50;;;1.80;99.90;;;;;;4942011;28;20085;-71
2021/12/12 06:01:50;;;;;;;2.33;1.63;;;1.80;99.90;;;;;;4948857;28;20089;-71
2021/12/12 06:04:17;;;;;;;5.07;2.40;;;1.80;99.90;;;;;;4945753;28;20048;-71
2021/12/12 06:06:44;;;;;;;3.00;1.63;;;1.80;99.90;;;;;;4945805;28;20030;-71
2021/12/12 06:09:12;;;;;;;3.38;1.85;;;1.70;99.90;;;;;;4948069;28;20085;-71
2021/12/12 06:11:42;;;;;;;2.95;1.88;;;1.70;99.90;;;;;;4945592;28;20037;-70
2021/12/12 06:14:09;;;;;;;5.22;1.83;;;1.70;99.90;;;;;;4951867;28;20023;-72
2021/12/12 06:16:36;;;;;;;2.38;1.58;;;1.70;99.90;;;;;;4945670;28;20516;-71
2021/12/12 06:19:18;;;;;;;4.32;1.60;;;1.70;99.90;;;;;;4946815;28;20031;-72
2021/12/12 06:21:45;;;;;;;3.33;1.80;;;1.70;99.90;;;;;;4948404;28;20493;-72
2021/12/12 06:24:12;;;;;;;2.95;1.77;;;1.60;99.90;;;;;;4951003;28;20062;-74
2021/12/12 06:26:38;;;;;;;3.65;1.80;;;1.60;99.90;;;;;;4948255;28;20039;-74
2021/12/12 06:29:05;;;;;;;3.22;1.90;;;1.60;99.90;;;;;;4945822;28;20563;-74
2021/12/12 06:31:31;;;;;;;3.13;1.63;;;1.60;99.90;;;;;;4944508;28;20034;-75
2021/12/12 06:33:57;;;;;;;3.55;1.60;;;1.50;99.90;;;;;;4948417;28;20527;-75
2021/12/12 06:36:24;;;;;;;3.03;1.80;;;1.50;99.90;;;;;;4962983;28;20109;-75
2021/12/12 06:38:52;;;;;;;3.03;1.98;;;1.50;99.90;;;;;;4949387;28;20015;-75
2021/12/12 06:41:20;;;;;;;3.88;1.83;;;1.50;99.90;;;;;;4943195;28;20117;-75
2021/12/12 06:43:47;;;;;;;4.90;1.80;;;1.50;99.90;;;;;;4946985;28;20027;-75
2021/12/12 06:46:14;;;;;;;2.10;1.60;;;1.50;99.90;;;;;;4947158;28;20148;-75
2021/12/12 06:48:41;;;;;;;3.63;1.77;;;1.50;99.90;;;;;;4949410;28;20362;-73
2021/12/12 06:51:08;;;;;;;3.35;2.00;;;1.50;99.90;;;;;;4945077;28;20039;-73
2021/12/12 06:53:37;;;;;;;4.15;2.03;;;1.40;99.90;;;;;;4948046;28;20303;-73
2021/12/12 06:56:04;;;;;;;4.93;2.10;;;1.40;99.90;;;;;;4950657;28;20440;-72
2021/12/12 06:58:31;;;;;;;4.05;2.00;;;1.40;99.90;;;;;;4955566;28;20050;-71
2021/12/12 07:01:22;;;;;;;3.28;1.90;;;1.40;99.90;;;;;;4949999;28;20035;-72
2021/12/12 07:03:49;;;;;;;2.75;1.73;;;1.30;99.90;;;;;;4954085;28;21426;-72
2021/12/12 07:06:21;;;;;;;3.30;1.88;;;1.30;99.90;;;;;;4955108;28;20081;-72
2021/12/12 07:08:47;;;;;;;3.55;2.25;;;1.30;99.90;;;;;;4953511;28;20141;-72
2021/12/12 07:11:20;;;;;;;3.60;1.92;;;1.30;99.90;;;;;;4950695;28;20117;-72
2021/12/12 07:13:48;;;;;;;3.75;2.20;;;1.20;99.90;;;;;;4952234;28;20035;-71
2021/12/12 07:16:15;;;;;;;4.43;2.40;;;1.20;99.90;;;;;;4951489;28;20489;-72
2021/12/12 07:18:42;;;;;;;5.28;2.25;;;1.20;99.90;;;;;;4956025;28;20035;-72
2021/12/12 07:21:11;;;;;;;4.10;2.30;;;1.20;99.90;;;;;;4954637;28;20504;-72
2021/12/12 07:23:39;;;;;;;3.60;2.10;;;1.10;99.90;;;;;;4949716;28;20038;-72
2021/12/12 07:26:08;;;;;;;3.67;2.10;;;1.10;99.90;;;;;;4953126;28;20087;-71
2021/12/12 07:28:35;;;;;;;3.58;1.90;;;1.10;99.90;;;;;;4949594;28;20050;-72
2021/12/12 07:31:07;;;;;;;3.90;2.15;;;1.10;99.90;;;;;;4952177;28;20027;-72
2021/12/12 07:33:34;;;;;;;5.10;2.47;;;1.10;99.90;;;;;;4989278;28;20053;-72
2021/12/12 07:36:01;;;;;;;5.13;2.35;;;1.10;99.90;;;;;;4952262;28;20058;-72
2021/12/12 07:38:30;;;;;;;5.20;3.03;;;1.10;99.90;;;;;;4954905;28;20114;-72
2021/12/12 07:40:57;;;;;;;5.13;2.90;;;1.10;99.90;;;;;;4953570;28;20034;-73
2021/12/12 07:43:23;;;;;;;5.15;2.85;;;1.10;99.90;;;;;;4956596;28;20109;-72
2021/12/12 07:45:49;;;;;;;5.43;2.75;;;1.10;99.90;;;;;;4948083;28;20062;-72
2021/12/12 07:48:15;;;;;;;6.90;3.47;;;1.10;99.90;;;;;;4953453;28;20050;-73
2021/12/12 07:50:44;;;;;;;4.68;2.63;;;1.10;99.90;;;;;;4949641;28;20592;-73
2021/12/12 07:53:10;;;;;;;6.53;2.95;;;1.10;99.90;;;;;;4952681;28;20020;-74
2021/12/12 07:55:37;;;;;;;4.68;3.00;;;1.20;99.90;;;;;;4952971;28;20027;-76
2021/12/12 07:58:09;;;;;;;5.28;2.72;;;1.20;99.90;;;;;;4983258;28;20495;-76
2021/12/12 08:00:36;;;;;;;4.70;2.45;;;1.20;99.90;;;;;;4954011;28;20129;-75
2021/12/12 08:03:03;;;;;;;7.63;2.85;;;1.30;99.90;;;;;;4952489;28;20039;-74
2021/12/12 08:05:31;;;;;;;4.90;2.90;;;1.30;99.90;;;;;;4981065;28;20042;-73
2021/12/12 08:08:00;;;;;;;4.47;2.28;;;1.30;99.90;;;;;;4950054;28;20094;-74
2021/12/12 08:10:27;;;;;;;6.50;2.70;;;1.40;99.90;;;;;;4948015;28;20042;-73
2021/12/12 08:12:54;;;;;;;7.10;2.83;;;1.50;99.90;;;;;;4946367;28;20392;-73
2021/12/12 08:15:20;;;;;;;5.97;2.97;;;1.50;99.90;;;;;;4941640;28;20027;-73
2021/12/12 08:17:46;;;;;;;6.18;2.97;;;1.50;99.90;;;;;;4943553;28;20039;-73
2021/12/12 08:20:14;;;;;;;5.82;2.72;;;1.60;99.90;;;;;;4952841;28;20042;-75
2021/12/12 08:22:42;;;;;;;5.28;3.25;;;1.60;99.90;;;;;;4951587;28;20499;-74
2021/12/12 08:25:11;;;;;;;10.60;3.40;;;1.70;99.90;;;;;;4950713;28;20087;-75
2021/12/12 08:27:37;;;;;;;5.25;3.25;;;1.80;99.90;;;;;;4952115;28;20407;-75
2021/12/12 08:30:06;;;;;;;7.63;2.95;;;1.80;99.90;;;;;;4948560;28;20166;-75
2021/12/12 08:32:32;;;;;;;5.25;2.83;;;1.90;99.90;;;;;;4950749;28;20421;-74
2021/12/12 08:34:58;;;;;;;5.28;2.53;;;2.00;99.90;;;;;;4948850;28;20031;-75
2021/12/12 08:37:27;;;;;;;4.30;2.55;;;2.20;99.90;;;;;;4948401;28;20074;-76
2021/12/12 08:39:54;;;;;;;6.03;2.55;;;2.40;99.90;;;;;;4952284;28;20030;-73
2021/12/12 08:42:20;;;;;;;4.88;3.03;;;2.50;99.90;;;;;;4957352;28;20023;-75
2021/12/12 08:44:47;;;;;;;6.03;2.47;;;2.70;99.90;;;;;;4953808;28;20034;-75
2021/12/12 08:47:12;;;;;;;6.78;2.45;;;2.90;99.90;;;;;;4953270;28;20027;-75
2021/12/12 08:49:41;;;;;;;4.10;2.35;;;3.00;99.90;;;;;;4955337;28;20033;-75
2021/12/12 08:52:12;;;;;;;3.70;2.35;;;3.10;99.90;;;;;;4978830;28;20499;-75
2021/12/12 08:54:41;;;;;;;5.35;2.65;;;3.20;99.90;;;;;;4955211;28;20045;-75
2021/12/12 08:57:23;;;;;;;4.25;2.72;;;3.30;99.90;;;;;;4955893;28;20463;-74
2021/12/12 08:59:52;;;;;;;8.23;3.30;;;3.50;99.90;;;;;;4954467;28;20024;-75
2021/12/12 09:02:19;;;;;;;5.13;2.60;;;3.50;99.90;;;;;;4969610;28;20038;-75
2021/12/12 09:05:00;;;;;;;6.90;2.88;;;3.60;99.90;;;;;;4985229;28;20039;-75
2021/12/12 09:07:36;;;;;;;4.28;2.80;;;3.60;99.90;;;;;;4982604;28;20157;-75
2021/12/12 09:10:12;;;;;;;5.30;2.80;;;3.70;99.90;;;;;;4972083;28;20035;-74
2021/12/12 09:12:42;;;;;;;6.25;3.00;;;3.80;99.90;;;;;;4956853;28;20496;-73
2021/12/12 09:15:39;;;;;;;6.28;3.50;;;3.80;99.90;;;;;;4955126;28;20389;-75
2021/12/12 09:18:27;;;;;;;7.10;3.42;;;3.90;99.90;;;;;;4954221;28;20039;-75
2021/12/12 09:21:10;;;;;;;5.60;3.42;;;3.80;99.90;;;;;;4954015;28;20050;-75
2021/12/12 09:23:49;;;;;;;6.95;3.70;;;3.90;99.90;;;;;;4954303;29;20035;-75
2021/12/12 09:26:23;;;;;;;4.97;2.88;;;3.80;99.90;;;;;;4951611;28;20054;-75
2021/12/12 09:29:10;;;;;;;6.05;2.95;;;3.80;99.90;;;;;;4954914;28;20027;-74
2021/12/12 09:31:42;;;;;;;3.88;2.78;;;3.70;99.90;;;;;;4955259;28;20515;-75
2021/12/12 09:34:23;;;;;;;6.13;3.53;;;3.60;99.90;;;;;;4955253;28;20027;-75
2021/12/12 09:37:02;;;;;;;5.82;3.17;;;3.60;99.90;;;;;;4952509;29;20122;-75
2021/12/12 09:39:46;;;;;;;9.18;3.70;;;3.60;99.90;;;;;;4969575;28;20397;-75
2021/12/12 09:42:15;;;;;;;4.43;2.65;;;3.60;99.90;;;;;;4953390;29;20039;-75
2021/12/12 09:44:49;;;;;;;5.22;3.05;;;3.50;99.90;;;;;;4946800;29;20043;-74
2021/12/12 09:48:14;;;;;;;5.07;3.17;;;3.50;99.90;;;;;;4984262;28;20038;-75
2021/12/12 09:51:18;;;;;;;4.95;3.00;;;3.60;99.90;;;;;;4953880;28;20027;-75
2021/12/12 09:54:05;;;;;;;7.30;3.15;;;3.70;99.90;;;;;;4951075;28;20027;-74
2021/12/12 09:56:46;;;;;;;5.88;3.30;;;3.70;99.90;;;;;;4919439;28;20417;-75
2021/12/12 09:59:32;;;;;;;5.38;3.00;;;3.70;99.90;;;;;;4954047;28;20097;-75
2021/12/12 10:02:18;;;;;;;5.97;3.05;;;3.70;99.90;;;;;;4968683;28;20105;-76
2021/12/12 10:05:08;;;;;;;4.15;2.30;;;3.80;99.90;;;;;;4964924;28;20114;-75
2021/12/12 10:07:44;;;;;;;3.47;2.45;;;3.80;99.90;;;;;;4983548;28;20265;-75
2021/12/12 10:10:35;;;;;;;4.50;3.05;;;3.90;99.90;;;;;;4951320;28;20503;-75
2021/12/12 10:13:21;;;;;;;4.80;2.83;;;4.00;99.90;;;;;;4968090;28;20038;-76
2021/12/12 10:15:59;;;;;;;4.50;2.60;;;4.10;99.90;;;;;;4953363;29;20031;-76
2021/12/12 10:18:35;;;;;;;6.30;2.83;;;4.10;99.90;;;;;;4965065;28;20034;-75
2021/12/12 10:21:09;;;;;;;4.78;2.50;;;4.10;99.90;;;;;;4977537;28;20082;-75
2021/12/12 10:23:57;;;;;;;4.40;2.28;;;4.20;99.90;;;;;;4964618;28;20043;-75
2021/12/12 10:26:37;;;;;;;4.55;2.70;;;4.30;99.90;;;;;;4951270;28;20524;-75
2021/12/12 10:29:27;;;;;;;4.93;2.45;;;4.30;99.90;;;;;;4952434;28;20460;-74
2021/12/12 10:32:01;;;;;;;4.30;2.38;;;4.40;99.90;;;;;;4951718;28;20186;-75
2021/12/12 10:34:33;;;;;;;4.10;2.58;;;4.40;99.90;;;;;;4948254;28;20028;-75
2021/12/12 10:37:25;;;;;;;5.07;2.85;;;4.40;99.90;;;;;;4950263;28;20178;-75
2021/12/12 10:40:04;;;;;;;6.13;3.33;;;4.50;99.90;;;;;;4949487;28;20070;-73
2021/12/12 10:42:34;;;;;;;4.78;2.72;;;4.60;99.90;;;;;;4962272;28;20028;-75
2021/12/12 10:45:08;;;;;;;6.50;3.40;;;4.60;99.90;;;;;;4951668;28;20082;-75
2021/12/12 10:47:49;;;;;;;5.18;2.75;;;4.60;99.90;;;;;;4947675;28;20365;-74
2021/12/12 10:50:34;;;;;;;7.78;2.75;;;4.70;99.90;;;;;;4978739;28;20027;-74
2021/12/12 10:53:10;;;;;;;7.20;3.53;;;4.80;99.90;;;;;;4950105;28;20078;-74
2021/12/12 10:55:36;;;;;;;5.60;2.42;;;4.90;99.90;;;;;;4946429;28;20019;-74
2021/12/12 10:58:28;;;;;;;5.47;3.15;;;5.00;99.90;;;;;;4962307;28;20082;-73
2021/12/12 11:01:00;;;;;;;3.92;2.10;;;5.10;99.90;;;;;;4965565;28;20090;-74
2021/12/12 11:03:31;;;;;;;6.65;3.17;;;5.10;99.90;;;;;;4951285;28;20543;-73
2021/12/12 11:06:15;;;;;;;5.47;2.90;;;5.20;99.90;;;;;;4949800;28;20023;-76
2021/12/12 11:08:50;;;;;;;5.70;3.15;;;5.20;99.90;;;;;;4952692;28;20110;-72
2021/12/12 11:11:24;;;;;;;5.03;2.95;;;5.20;99.90;;;;;;4963341;28;20481;-76
2021/12/12 11:14:16;;;;;;;3.70;2.58;;;5.30;99.90;;;;;;4981345;28;20376;-74
2021/12/12 11:17:11;;;;;;;5.85;2.50;;;5.30;99.90;;;;;;4942066;28;20036;-74
2021/12/12 11:19:46;;;;;;;3.85;2.17;;;5.30;99.90;;;;;;4948659;28;20036;-73
2021/12/12 11:22:24;;;;;;;4.63;2.60;;;5.40;99.90;;;;;;4964067;28;20138;-72
2021/12/12 11:24:58;;;;;;;3.85;2.58;;;5.40;99.90;;;;;;4951667;28;20035;-73
2021/12/12 11:27:30;;;;;;;5.82;3.00;;;5.40;99.90;;;;;;4948721;28;20035;-73
2021/12/12 11:30:07;;;;;;;5.30;3.10;;;5.50;99.90;;;;;;4940859;28;20023;-72
2021/12/12 11:32:37;;;;;;;3.55;2.53;;;5.50;99.90;;;;;;4964288;28;20027;-73
2021/12/12 11:35:07;;;;;;;5.78;2.83;;;5.60;99.90;;;;;;4950130;28;20028;-74
2021/12/12 11:38:07;;;;;;;4.60;2.70;;;5.60;99.90;;;;;;4979273;28;20499;-73
2021/12/12 11:40:41;;;;;;;6.50;2.50;;;5.70;99.90;;;;;;4948225;28;20110;-75
2021/12/12 11:43:34;;;;;;;6.70;3.08;;;5.80;99.90;;;;;;4960029;28;20028;-75
2021/12/12 11:46:04;;;;;;;5.38;2.63;;;5.90;99.90;;;;;;4947930;28;20035;-75
2021/12/12 11:49:07;;;;;;;6.22;2.58;;;6.00;99.90;;;;;;4965455;28;20400;-75
2021/12/12 11:51:33;;;;;;;5.20;2.80;;;6.00;99.90;;;;;;4949586;28;20027;-75
2021/12/12 11:54:11;;;;;;;6.82;2.88;;;6.10;99.90;;;;;;4967881;28;20033;-75
2021/12/12 11:56:45;;;;;;;5.43;3.13;;;6.10;99.90;;;;;;4956714;28;20030;-75
2021/12/12 11:59:20;;;;;;;9.75;4.40;;;6.10;99.90;;;;;;4969188;28;20510;-74
2021/12/12 12:01:51;;;;;;;7.45;3.80;;;6.10;99.90;;;;;;4964603;28;20182;-75
2021/12/12 12:04:52;;;;;;;4.60;2.90;;;6.00;99.90;;;;;;4953530;28;20031;-75
2021/12/12 12:07:20;;;;;;;6.70;3.70;;;6.10;99.90;;;;;;4966608;28;20046;-74
2021/12/12 12:10:27;;;;;;;6.68;3.17;;;6.10;99.90;;;;;;4958947;28;20130;-74
2021/12/12 12:13:17;;;;;;;4.97;2.92;;;6.20;99.90;;;;;;4955497;28;20483;-74
2021/12/12 12:15:49;;;;;;;3.85;2.35;;;6.20;99.90;;;;;;4948476;28;20377;-74
2021/12/12 12:18:33;;;;;;;4.18;2.40;;;6.10;99.90;;;;;;4950646;28;20035;-73
2021/12/12 12:21:03;;;;;;;;;;;6.20;99.90;;;;;;4948372;28;20039;-74
2021/12/12 12:27:02;;;;;;;6.50;3.28;;;6.20;99.90;;;;;;4941769;28;20046;-75
2021/12/12 12:29:28;;;;;;;4.78;3.03;;;6.20;99.90;;;;;;4978559;28;20441;-75
2021/12/12 12:32:31;;;;;;;5.78;2.60;;;6.20;99.90;;;;;;4948365;28;20099;-74
2021/12/12 12:35:43;;;;;;;5.20;2.70;;;6.10;99.90;;;;;;4948906;28;20035;-74
2021/12/12 12:38:31;;;;;;;5.00;2.60;;;6.10;99.90;;;;;;4962841;28;20497;-73
2021/12/12 12:41:15;;;;;;;3.67;2.60;;;6.10;99.90;;;;;;4948144;28;20057;-74
2021/12/12 12:44:19;;;;;;;8.40;2.85;;;6.10;99.90;;;;;;4964791;28;20039;-74
2021/12/12 12:47:22;;;;;;;5.35;2.58;;;6.10;99.90;;;;;;4980819;28;20190;-73
2021/12/12 12:50:25;;;;;;;4.40;2.40;;;6.10;99.90;;;;;;4951427;28;20035;-73
2021/12/12 12:53:28;;;;;;;5.78;2.53;;;6.20;99.90;;;;;;4949007;28;20037;-75
2021/12/12 12:56:21;;;;;;;8.55;3.25;;;6.20;99.90;;;;;;4959312;28;20048;-74
2021/12/12 12:59:21;;;;;;;4.90;2.78;;;6.30;99.90;;;;;;4946253;28;20039;-75
2021/12/12 13:01:59;;;;;;;5.20;2.65;;;6.40;99.90;;;;;;4950646;28;20023;-74
2021/12/12 13:04:56;;;;;;;4.53;2.47;;;6.40;99.90;;;;;;4952080;28;20452;-74
2021/12/12 13:07:22;;;;;;;6.53;3.17;;;6.40;99.90;;;;;;4896868;28;20051;-75
2021/12/12 13:10:00;;;;;;;7.60;3.53;;;6.40;99.90;;;;;;4960911;28;20039;-76
2021/12/12 13:12:43;;;;;;;4.78;2.45;;;6.50;99.90;;;;;;4947652;28;20027;-76
2021/12/12 13:15:30;;;;;;;4.45;2.40;;;6.60;99.90;;;;;;4947691;28;20047;-74
2021/12/12 13:18:21;;;;;;;3.55;2.50;;;6.60;99.90;;;;;;4964215;28;20063;-74
2021/12/12 13:21:02;;;;;;;4.95;2.67;;;6.70;99.90;;;;;;4947486;28;20035;-73
2021/12/12 13:23:57;;;;;;;5.53;2.25;;;6.70;99.90;;;;;;4982079;28;20031;-73
2021/12/12 13:27:13;;;;;;;4.47;2.10;;;6.80;99.90;;;;;;4933859;28;20118;-72
2021/12/12 13:30:06;;;;;;;2.58;1.92;;;6.80;99.90;;;;;;4942110;28;20071;-73
2021/12/12 13:33:06;;;;;;;4.57;2.10;;;6.90;99.90;;;;;;4952327;28;20484;-73
2021/12/12 13:35:44;;;;;;;3.50;1.90;;;6.90;99.90;;;;;;4951018;28;20027;-74
2021/12/12 13:38:23;;;;;;;3.55;2.05;;;6.90;99.90;;;;;;4949463;28;20083;-76
2021/12/12 13:41:25;;;;;;;7.30;2.45;;;6.80;99.90;;;;;;4944717;28;20109;-72
2021/12/12 13:44:12;;;;;;;5.75;2.95;;;6.90;99.90;;;;;;4947486;28;20103;-73
2021/12/12 13:47:13;;;;;;;5.22;2.60;;;6.90;99.90;;;;;;4951678;28;20465;-73
2021/12/12 13:50:01;;;;;;;4.85;2.60;;;6.90;99.90;;;;;;4949027;28;20079;-73
2021/12/12 13:52:36;;;;;;;4.68;2.35;;;7.00;99.90;;;;;;4982328;28;20381;-73
2021/12/12 13:55:11;;;;;;;7.20;3.53;;;7.00;99.90;;;;;;4952419;28;20028;-73
2021/12/12 13:57:46;;;;;;;6.40;3.10;;;7.00;99.90;;;;;;4951792;28;20027;-73